sensor_id;sensor_type;location;lat;lon;timestamp;P1;durP1;ratioP1;P2;durP2;ratioP2
25972;SDS011;13765;51.166;4.466;2022-10-23T00:01:31;13.57;;;3.05;;
25972;SDS011;13765;51.166;4.466;2022-10-23T00:04:10;9.20;;;3.08;;
25972;SDS011;13765;51.166;4.466;2022-10-23T00:06:36;19.48;;;4.13;;
25972;SDS011;13765;51.166;4.466;2022-10-23T00:09:03;13.50;;;3.42;;
25972;SDS011;13765;51.166;4.466;2022-10-23T00:11:33;8.45;;;3.55;;
25972;SDS011;13765;51.166;4.466;2022-10-23T00:13:59;8.20;;;2.63;;
25972;SDS011;13765;51.166;4.466;2022-10-23T00:16:28;14.25;;;3.30;;
25972;SDS011;13765;51.166;4.466;2022-10-23T00:18:57;10.55;;;2.95;;
25972;SDS011;13765;51.166;4.466;2022-10-23T00:21:26;13.43;;;3.38;;
25972;SDS011;13765;51.166;4.466;2022-10-23T00:23:52;6.93;;;2.92;;
25972;SDS011;13765;51.166;4.466;2022-10-23T00:26:18;18.98;;;3.15;;
25972;SDS011;13765;51.166;4.466;2022-10-23T00:28:46;7.95;;;3.00;;
25972;SDS011;13765;51.166;4.466;2022-10-23T00:31:17;5.40;;;2.83;;
25972;SDS011;13765;51.166;4.466;2022-10-23T00:33:48;7.07;;;3.30;;
25972;SDS011;13765;51.166;4.466;2022-10-23T00:36:15;11.02;;;3.70;;
25972;SDS011;13765;51.166;4.466;2022-10-23T00:38:42;13.80;;;3.05;;
25972;SDS011;13765;51.166;4.466;2022-10-23T00:41:15;12.00;;;3.55;;
25972;SDS011;13765;51.166;4.466;2022-10-23T00:46:33;14.70;;;3.17;;
25972;SDS011;13765;51.166;4.466;2022-10-23T00:49:03;13.50;;;3.45;;
25972;SDS011;13765;51.166;4.466;2022-10-23T00:51:35;8.73;;;3.53;;
25972;SDS011;13765;51.166;4.466;2022-10-23T00:54:07;14.20;;;3.60;;
25972;SDS011;13765;51.166;4.466;2022-10-23T00:56:38;7.63;;;3.05;;
25972;SDS011;13765;51.166;4.466;2022-10-23T00:59:06;11.63;;;3.05;;
25972;SDS011;13765;51.166;4.466;2022-10-23T01:01:32;14.23;;;3.72;;
25972;SDS011;13765;51.166;4.466;2022-10-23T01:03:58;11.23;;;3.70;;
25972;SDS011;13765;51.166;4.466;2022-10-23T01:06:36;16.77;;;3.70;;
25972;SDS011;13765;51.166;4.466;2022-10-23T01:12:09;11.48;;;3.50;;
25972;SDS011;13765;51.166;4.466;2022-10-23T01:26:00;11.77;;;3.55;;
25972;SDS011;13765;51.166;4.466;2022-10-23T01:28:24;10.05;;;3.08;;
25972;SDS011;13765;51.166;4.466;2022-10-23T01:30:53;13.75;;;3.45;;
25972;SDS011;13765;51.166;4.466;2022-10-23T01:33:26;16.52;;;3.67;;
25972;SDS011;13765;51.166;4.466;2022-10-23T01:35:59;9.20;;;3.00;;
25972;SDS011;13765;51.166;4.466;2022-10-23T01:39:03;13.52;;;4.10;;
25972;SDS011;13765;51.166;4.466;2022-10-23T01:41:33;6.95;;;3.00;;
25972;SDS011;13765;51.166;4.466;2022-10-23T01:46:50;8.60;;;3.20;;
25972;SDS011;13765;51.166;4.466;2022-10-23T01:51:53;7.20;;;2.50;;
25972;SDS011;13765;51.166;4.466;2022-10-23T01:54:24;9.30;;;3.25;;
25972;SDS011;13765;51.166;4.466;2022-10-23T01:56:54;8.23;;;3.13;;
25972;SDS011;13765;51.166;4.466;2022-10-23T01:59:21;8.00;;;2.70;;
25972;SDS011;13765;51.166;4.466;2022-10-23T02:01:53;7.65;;;2.85;;
25972;SDS011;13765;51.166;4.466;2022-10-23T02:04:26;18.77;;;3.33;;
25972;SDS011;13765;51.166;4.466;2022-10-23T02:06:56;14.00;;;3.00;;
25972;SDS011;13765;51.166;4.466;2022-10-23T02:09:22;8.55;;;2.83;;
25972;SDS011;13765;51.166;4.466;2022-10-23T02:17:23;5.88;;;2.47;;
25972;SDS011;13765;51.166;4.466;2022-10-23T02:20:04;6.72;;;2.55;;
25972;SDS011;13765;51.166;4.466;2022-10-23T02:22:39;7.78;;;2.60;;
25972;SDS011;13765;51.166;4.466;2022-10-23T02:25:16;10.13;;;3.40;;
25972;SDS011;13765;51.166;4.466;2022-10-23T02:27:52;8.15;;;2.88;;
25972;SDS011;13765;51.166;4.466;2022-10-23T02:30:23;6.38;;;2.15;;
25972;SDS011;13765;51.166;4.466;2022-10-23T02:32:52;10.68;;;2.53;;
25972;SDS011;13765;51.166;4.466;2022-10-23T02:35:20;8.68;;;2.55;;
25972;SDS011;13765;51.166;4.466;2022-10-23T02:37:57;6.22;;;2.30;;
25972;SDS011;13765;51.166;4.466;2022-10-23T02:40:30;13.15;;;3.78;;
25972;SDS011;13765;51.166;4.466;2022-10-23T02:43:16;6.10;;;2.35;;
25972;SDS011;13765;51.166;4.466;2022-10-23T02:46:04;6.70;;;2.58;;
25972;SDS011;13765;51.166;4.466;2022-10-23T02:49:08;10.50;;;3.05;;
25972;SDS011;13765;51.166;4.466;2022-10-23T02:51:50;4.35;;;2.28;;
25972;SDS011;13765;51.166;4.466;2022-10-23T02:54:22;9.45;;;3.28;;
25972;SDS011;13765;51.166;4.466;2022-10-23T03:00:00;10.80;;;2.85;;
25972;SDS011;13765;51.166;4.466;2022-10-23T03:02:37;9.10;;;2.67;;
25972;SDS011;13765;51.166;4.466;2022-10-23T03:05:11;11.00;;;2.72;;
25972;SDS011;13765;51.166;4.466;2022-10-23T03:07:40;10.45;;;2.30;;
25972;SDS011;13765;51.166;4.466;2022-10-23T03:10:09;9.30;;;2.53;;
25972;SDS011;13765;51.166;4.466;2022-10-23T03:12:35;7.93;;;2.25;;
25972;SDS011;13765;51.166;4.466;2022-10-23T03:15:06;7.55;;;2.25;;
25972;SDS011;13765;51.166;4.466;2022-10-23T03:17:32;11.25;;;2.20;;
25972;SDS011;13765;51.166;4.466;2022-10-23T03:20:02;13.27;;;3.08;;
25972;SDS011;13765;51.166;4.466;2022-10-23T03:22:29;8.68;;;2.72;;
25972;SDS011;13765;51.166;4.466;2022-10-23T03:24:57;6.43;;;2.45;;
25972;SDS011;13765;51.166;4.466;2022-10-23T03:27:23;9.80;;;3.22;;
25972;SDS011;13765;51.166;4.466;2022-10-23T03:29:51;11.57;;;3.13;;
25972;SDS011;13765;51.166;4.466;2022-10-23T03:32:17;8.38;;;2.33;;
25972;SDS011;13765;51.166;4.466;2022-10-23T03:34:43;7.80;;;2.38;;
25972;SDS011;13765;51.166;4.466;2022-10-23T03:37:09;11.98;;;2.55;;
25972;SDS011;13765;51.166;4.466;2022-10-23T03:39:37;6.63;;;2.45;;
25972;SDS011;13765;51.166;4.466;2022-10-23T03:42:03;5.78;;;2.22;;
25972;SDS011;13765;51.166;4.466;2022-10-23T03:44:32;7.55;;;3.00;;
25972;SDS011;13765;51.166;4.466;2022-10-23T03:47:02;3.03;;;1.85;;
25972;SDS011;13765;51.166;4.466;2022-10-23T03:49:29;10.50;;;2.85;;
25972;SDS011;13765;51.166;4.466;2022-10-23T03:51:57;7.07;;;2.53;;
25972;SDS011;13765;51.166;4.466;2022-10-23T03:54:24;11.90;;;3.55;;
25972;SDS011;13765;51.166;4.466;2022-10-23T03:56:55;6.45;;;2.17;;
25972;SDS011;13765;51.166;4.466;2022-10-23T03:59:23;8.48;;;2.03;;
25972;SDS011;13765;51.166;4.466;2022-10-23T04:01:49;5.22;;;1.92;;
25972;SDS011;13765;51.166;4.466;2022-10-23T04:04:17;11.15;;;2.53;;
25972;SDS011;13765;51.166;4.466;2022-10-23T04:06:45;4.15;;;1.73;;
25972;SDS011;13765;51.166;4.466;2022-10-23T04:09:11;8.40;;;2.60;;
25972;SDS011;13765;51.166;4.466;2022-10-23T04:11:37;7.43;;;2.42;;
25972;SDS011;13765;51.166;4.466;2022-10-23T04:14:05;7.07;;;2.03;;
25972;SDS011;13765;51.166;4.466;2022-10-23T04:16:33;6.75;;;2.97;;
25972;SDS011;13765;51.166;4.466;2022-10-23T04:18:58;10.98;;;2.72;;
25972;SDS011;13765;51.166;4.466;2022-10-23T04:21:24;9.63;;;2.78;;
25972;SDS011;13765;51.166;4.466;2022-10-23T04:23:50;6.05;;;2.15;;
25972;SDS011;13765;51.166;4.466;2022-10-23T04:26:16;5.03;;;2.25;;
25972;SDS011;13765;51.166;4.466;2022-10-23T04:28:44;3.95;;;1.83;;
25972;SDS011;13765;51.166;4.466;2022-10-23T04:31:10;7.05;;;2.28;;
25972;SDS011;13765;51.166;4.466;2022-10-23T04:33:35;5.82;;;2.35;;
25972;SDS011;13765;51.166;4.466;2022-10-23T04:36:02;11.63;;;2.20;;
25972;SDS011;13765;51.166;4.466;2022-10-23T04:38:27;4.05;;;1.65;;
25972;SDS011;13765;51.166;4.466;2022-10-23T04:40:56;5.05;;;1.65;;
25972;SDS011;13765;51.166;4.466;2022-10-23T04:43:22;9.73;;;2.78;;
25972;SDS011;13765;51.166;4.466;2022-10-23T04:45:50;6.63;;;2.03;;
25972;SDS011;13765;51.166;4.466;2022-10-23T04:48:16;8.30;;;2.20;;
25972;SDS011;13765;51.166;4.466;2022-10-23T04:50:42;4.90;;;1.90;;
25972;SDS011;13765;51.166;4.466;2022-10-23T04:53:08;8.75;;;2.75;;
25972;SDS011;13765;51.166;4.466;2022-10-23T04:55:36;8.00;;;2.53;;
25972;SDS011;13765;51.166;4.466;2022-10-23T04:58:02;7.03;;;2.30;;
25972;SDS011;13765;51.166;4.466;2022-10-23T05:00:27;4.10;;;1.90;;
25972;SDS011;13765;51.166;4.466;2022-10-23T05:02:56;6.90;;;2.30;;
25972;SDS011;13765;51.166;4.466;2022-10-23T05:05:24;4.65;;;2.05;;
25972;SDS011;13765;51.166;4.466;2022-10-23T05:07:50;5.72;;;1.70;;
25972;SDS011;13765;51.166;4.466;2022-10-23T05:10:15;3.53;;;1.63;;
25972;SDS011;13765;51.166;4.466;2022-10-23T05:12:41;10.43;;;2.15;;
25972;SDS011;13765;51.166;4.466;2022-10-23T05:15:07;5.93;;;2.58;;
25972;SDS011;13765;51.166;4.466;2022-10-23T05:17:34;6.40;;;1.98;;
25972;SDS011;13765;51.166;4.466;2022-10-23T05:20:04;13.88;;;3.95;;
25972;SDS011;13765;51.166;4.466;2022-10-23T05:22:34;7.47;;;2.83;;
25972;SDS011;13765;51.166;4.466;2022-10-23T05:25:05;4.80;;;2.38;;
25972;SDS011;13765;51.166;4.466;2022-10-23T05:27:31;11.10;;;2.42;;
25972;SDS011;13765;51.166;4.466;2022-10-23T05:29:57;4.97;;;2.08;;
25972;SDS011;13765;51.166;4.466;2022-10-23T05:32:26;5.70;;;1.75;;
25972;SDS011;13765;51.166;4.466;2022-10-23T05:34:58;8.35;;;1.98;;
25972;SDS011;13765;51.166;4.466;2022-10-23T05:37:27;6.72;;;2.40;;
25972;SDS011;13765;51.166;4.466;2022-10-23T05:39:55;8.35;;;2.00;;
25972;SDS011;13765;51.166;4.466;2022-10-23T05:42:21;9.35;;;2.17;;
25972;SDS011;13765;51.166;4.466;2022-10-23T05:44:49;5.38;;;1.90;;
25972;SDS011;13765;51.166;4.466;2022-10-23T05:47:15;9.27;;;2.97;;
25972;SDS011;13765;51.166;4.466;2022-10-23T05:49:41;10.60;;;2.80;;
25972;SDS011;13765;51.166;4.466;2022-10-23T05:52:10;5.53;;;2.22;;
25972;SDS011;13765;51.166;4.466;2022-10-23T05:54:36;12.60;;;2.67;;
25972;SDS011;13765;51.166;4.466;2022-10-23T05:57:06;6.28;;;2.08;;
25972;SDS011;13765;51.166;4.466;2022-10-23T05:59:34;9.73;;;2.08;;
25972;SDS011;13765;51.166;4.466;2022-10-23T06:02:02;7.88;;;2.35;;
25972;SDS011;13765;51.166;4.466;2022-10-23T06:04:28;6.85;;;1.98;;
25972;SDS011;13765;51.166;4.466;2022-10-23T06:06:54;9.00;;;2.53;;
25972;SDS011;13765;51.166;4.466;2022-10-23T06:09:20;5.90;;;2.20;;
25972;SDS011;13765;51.166;4.466;2022-10-23T06:11:46;5.82;;;2.15;;
25972;SDS011;13765;51.166;4.466;2022-10-23T06:14:14;6.25;;;2.40;;
25972;SDS011;13765;51.166;4.466;2022-10-23T06:16:47;8.60;;;2.28;;
25972;SDS011;13765;51.166;4.466;2022-10-23T06:19:15;13.35;;;2.80;;
25972;SDS011;13765;51.166;4.466;2022-10-23T06:21:41;10.20;;;2.15;;
25972;SDS011;13765;51.166;4.466;2022-10-23T06:24:06;5.78;;;2.35;;
25972;SDS011;13765;51.166;4.466;2022-10-23T06:26:34;6.18;;;2.00;;
25972;SDS011;13765;51.166;4.466;2022-10-23T06:29:00;6.38;;;2.03;;
25972;SDS011;13765;51.166;4.466;2022-10-23T06:31:25;5.38;;;2.13;;
25972;SDS011;13765;51.166;4.466;2022-10-23T06:33:54;5.80;;;2.30;;
25972;SDS011;13765;51.166;4.466;2022-10-23T06:36:21;9.45;;;2.83;;
25972;SDS011;13765;51.166;4.466;2022-10-23T06:38:47;8.07;;;2.00;;
25972;SDS011;13765;51.166;4.466;2022-10-23T06:41:17;4.47;;;1.83;;
25972;SDS011;13765;51.166;4.466;2022-10-23T06:43:51;4.88;;;2.35;;
25972;SDS011;13765;51.166;4.466;2022-10-23T06:46:17;8.60;;;2.20;;
25972;SDS011;13765;51.166;4.466;2022-10-23T06:48:44;7.07;;;2.22;;
25972;SDS011;13765;51.166;4.466;2022-10-23T06:51:10;8.07;;;2.70;;
25972;SDS011;13765;51.166;4.466;2022-10-23T06:53:43;14.00;;;2.78;;
25972;SDS011;13765;51.166;4.466;2022-10-23T06:56:09;5.43;;;2.50;;
25972;SDS011;13765;51.166;4.466;2022-10-23T06:58:41;13.25;;;1.95;;
25972;SDS011;13765;51.166;4.466;2022-10-23T07:01:07;5.97;;;1.70;;
25972;SDS011;13765;51.166;4.466;2022-10-23T07:03:35;7.57;;;2.58;;
25972;SDS011;13765;51.166;4.466;2022-10-23T07:06:03;12.98;;;2.63;;
25972;SDS011;13765;51.166;4.466;2022-10-23T07:08:33;4.78;;;1.67;;
25972;SDS011;13765;51.166;4.466;2022-10-23T07:11:06;7.97;;;2.17;;
25972;SDS011;13765;51.166;4.466;2022-10-23T07:13:34;7.15;;;2.40;;
25972;SDS011;13765;51.166;4.466;2022-10-23T07:16:11;5.68;;;2.03;;
25972;SDS011;13765;51.166;4.466;2022-10-23T07:18:44;6.75;;;2.38;;
25972;SDS011;13765;51.166;4.466;2022-10-23T07:21:11;7.05;;;2.50;;
25972;SDS011;13765;51.166;4.466;2022-10-23T07:23:39;5.90;;;3.00;;
25972;SDS011;13765;51.166;4.466;2022-10-23T07:28:35;5.22;;;2.03;;
25972;SDS011;13765;51.166;4.466;2022-10-23T07:31:00;5.80;;;2.08;;
25972;SDS011;13765;51.166;4.466;2022-10-23T07:33:26;7.35;;;2.30;;
25972;SDS011;13765;51.166;4.466;2022-10-23T07:35:52;5.47;;;2.50;;
25972;SDS011;13765;51.166;4.466;2022-10-23T07:38:19;4.00;;;1.55;;
25972;SDS011;13765;51.166;4.466;2022-10-23T07:40:46;3.55;;;1.95;;
25972;SDS011;13765;51.166;4.466;2022-10-23T07:43:15;5.85;;;2.00;;
25972;SDS011;13765;51.166;4.466;2022-10-23T07:45:42;5.30;;;2.17;;
25972;SDS011;13765;51.166;4.466;2022-10-23T07:48:13;7.28;;;2.08;;
25972;SDS011;13765;51.166;4.466;2022-10-23T07:50:42;5.03;;;2.05;;
25972;SDS011;13765;51.166;4.466;2022-10-23T07:53:19;6.85;;;2.15;;
25972;SDS011;13765;51.166;4.466;2022-10-23T07:55:52;4.95;;;1.98;;
25972;SDS011;13765;51.166;4.466;2022-10-23T07:58:23;5.15;;;2.17;;
25972;SDS011;13765;51.166;4.466;2022-10-23T08:00:55;7.43;;;2.28;;
25972;SDS011;13765;51.166;4.466;2022-10-23T08:03:23;4.78;;;2.17;;
25972;SDS011;13765;51.166;4.466;2022-10-23T08:05:51;7.88;;;2.25;;
25972;SDS011;13765;51.166;4.466;2022-10-23T08:08:17;7.05;;;2.47;;
25972;SDS011;13765;51.166;4.466;2022-10-23T08:10:47;3.22;;;1.60;;
25972;SDS011;13765;51.166;4.466;2022-10-23T08:13:17;5.70;;;2.25;;
25972;SDS011;13765;51.166;4.466;2022-10-23T08:15:47;3.85;;;1.88;;
25972;SDS011;13765;51.166;4.466;2022-10-23T08:18:14;5.38;;;1.73;;
25972;SDS011;13765;51.166;4.466;2022-10-23T08:20:40;3.75;;;1.95;;
25972;SDS011;13765;51.166;4.466;2022-10-23T08:23:08;6.32;;;2.55;;
25972;SDS011;13765;51.166;4.466;2022-10-23T08:25:40;5.20;;;2.17;;
25972;SDS011;13765;51.166;4.466;2022-10-23T08:28:08;5.57;;;2.17;;
25972;SDS011;13765;51.166;4.466;2022-10-23T08:30:35;5.78;;;1.90;;
25972;SDS011;13765;51.166;4.466;2022-10-23T08:33:05;6.10;;;1.88;;
25972;SDS011;13765;51.166;4.466;2022-10-23T08:35:37;10.85;;;2.20;;
25972;SDS011;13765;51.166;4.466;2022-10-23T08:38:03;5.85;;;2.15;;
25972;SDS011;13765;51.166;4.466;2022-10-23T08:40:35;5.53;;;2.08;;
25972;SDS011;13765;51.166;4.466;2022-10-23T08:45:44;4.55;;;1.80;;
25972;SDS011;13765;51.166;4.466;2022-10-23T08:48:29;9.23;;;3.08;;
25972;SDS011;13765;51.166;4.466;2022-10-23T08:51:01;6.07;;;2.42;;
25972;SDS011;13765;51.166;4.466;2022-10-23T08:53:38;2.70;;;1.63;;
25972;SDS011;13765;51.166;4.466;2022-10-23T08:56:24;6.07;;;2.15;;
25972;SDS011;13765;51.166;4.466;2022-10-23T08:58:57;4.53;;;2.20;;
25972;SDS011;13765;51.166;4.466;2022-10-23T09:01:49;9.73;;;1.90;;
25972;SDS011;13765;51.166;4.466;2022-10-23T09:04:22;9.25;;;3.53;;
25972;SDS011;13765;51.166;4.466;2022-10-23T09:07:00;8.25;;;2.08;;
25972;SDS011;13765;51.166;4.466;2022-10-23T09:09:46;7.40;;;2.10;;
25972;SDS011;13765;51.166;4.466;2022-10-23T09:12:33;21.15;;;5.68;;
25972;SDS011;13765;51.166;4.466;2022-10-23T09:18:22;27.00;;;7.93;;
25972;SDS011;13765;51.166;4.466;2022-10-23T09:20:50;21.75;;;6.40;;
25972;SDS011;13765;51.166;4.466;2022-10-23T09:23:22;14.73;;;5.30;;
25972;SDS011;13765;51.166;4.466;2022-10-23T09:25:49;11.77;;;3.85;;
25972;SDS011;13765;51.166;4.466;2022-10-23T09:28:42;9.43;;;2.70;;
25972;SDS011;13765;51.166;4.466;2022-10-23T09:31:15;13.88;;;3.47;;
25972;SDS011;13765;51.166;4.466;2022-10-23T09:33:52;10.30;;;2.97;;
25972;SDS011;13765;51.166;4.466;2022-10-23T09:36:25;6.93;;;2.45;;
25972;SDS011;13765;51.166;4.466;2022-10-23T09:38:57;9.90;;;3.45;;
25972;SDS011;13765;51.166;4.466;2022-10-23T09:41:28;8.90;;;2.00;;
25972;SDS011;13765;51.166;4.466;2022-10-23T09:44:01;4.65;;;2.42;;
25972;SDS011;13765;51.166;4.466;2022-10-23T09:46:39;6.07;;;2.17;;
25972;SDS011;13765;51.166;4.466;2022-10-23T09:54:29;6.47;;;2.33;;
25972;SDS011;13765;51.166;4.466;2022-10-23T09:57:00;7.65;;;2.55;;
25972;SDS011;13765;51.166;4.466;2022-10-23T09:59:52;5.35;;;1.98;;
25972;SDS011;13765;51.166;4.466;2022-10-23T10:02:31;6.00;;;2.00;;
25972;SDS011;13765;51.166;4.466;2022-10-23T10:05:10;3.53;;;1.88;;
25972;SDS011;13765;51.166;4.466;2022-10-23T10:07:55;4.47;;;1.75;;
25972;SDS011;13765;51.166;4.466;2022-10-23T10:10:33;4.90;;;2.45;;
25972;SDS011;13765;51.166;4.466;2022-10-23T10:13:09;3.75;;;1.80;;
25972;SDS011;13765;51.166;4.466;2022-10-23T10:15:49;6.47;;;2.03;;
25972;SDS011;13765;51.166;4.466;2022-10-23T10:23:46;6.68;;;2.25;;
25972;SDS011;13765;51.166;4.466;2022-10-23T10:29:09;3.83;;;1.80;;
25972;SDS011;13765;51.166;4.466;2022-10-23T10:39:57;9.85;;;2.25;;
25972;SDS011;13765;51.166;4.466;2022-10-23T10:42:50;8.80;;;2.35;;
25972;SDS011;13765;51.166;4.466;2022-10-23T10:50:29;9.32;;;2.45;;
25972;SDS011;13765;51.166;4.466;2022-10-23T10:53:19;7.43;;;2.13;;
25972;SDS011;13765;51.166;4.466;2022-10-23T10:56:04;6.35;;;2.72;;
25972;SDS011;13765;51.166;4.466;2022-10-23T11:01:12;7.70;;;2.05;;
25972;SDS011;13765;51.166;4.466;2022-10-23T11:04:00;4.38;;;2.22;;
25972;SDS011;13765;51.166;4.466;2022-10-23T11:06:37;6.53;;;2.28;;
25972;SDS011;13765;51.166;4.466;2022-10-23T11:09:15;7.47;;;1.80;;
25972;SDS011;13765;51.166;4.466;2022-10-23T11:11:45;7.55;;;2.50;;
25972;SDS011;13765;51.166;4.466;2022-10-23T11:14:31;7.65;;;2.20;;
25972;SDS011;13765;51.166;4.466;2022-10-23T11:17:10;5.22;;;2.00;;
25972;SDS011;13765;51.166;4.466;2022-10-23T11:19:48;5.82;;;1.90;;
25972;SDS011;13765;51.166;4.466;2022-10-23T11:25:24;5.88;;;2.50;;
25972;SDS011;13765;51.166;4.466;2022-10-23T11:36:47;6.20;;;2.13;;
25972;SDS011;13765;51.166;4.466;2022-10-23T11:39:26;5.55;;;2.20;;
25972;SDS011;13765;51.166;4.466;2022-10-23T11:41:59;3.95;;;1.98;;
25972;SDS011;13765;51.166;4.466;2022-10-23T11:47:24;8.20;;;2.35;;
25972;SDS011;13765;51.166;4.466;2022-10-23T11:52:39;4.18;;;1.75;;
25972;SDS011;13765;51.166;4.466;2022-10-23T11:55:20;13.73;;;2.17;;
25972;SDS011;13765;51.166;4.466;2022-10-23T12:00:33;5.05;;;1.92;;
25972;SDS011;13765;51.166;4.466;2022-10-23T12:03:04;5.90;;;2.47;;
25972;SDS011;13765;51.166;4.466;2022-10-23T12:05:31;4.65;;;1.90;;
25972;SDS011;13765;51.166;4.466;2022-10-23T12:08:02;4.30;;;1.67;;
25972;SDS011;13765;51.166;4.466;2022-10-23T12:10:33;4.78;;;2.30;;
25972;SDS011;13765;51.166;4.466;2022-10-23T12:13:30;6.10;;;2.30;;
25972;SDS011;13765;51.166;4.466;2022-10-23T12:16:02;6.65;;;2.00;;
25972;SDS011;13765;51.166;4.466;2022-10-23T12:18:31;6.10;;;1.63;;
25972;SDS011;13765;51.166;4.466;2022-10-23T12:20:58;7.82;;;1.88;;
25972;SDS011;13765;51.166;4.466;2022-10-23T12:29:20;7.35;;;2.00;;
25972;SDS011;13765;51.166;4.466;2022-10-23T12:40:31;8.70;;;2.15;;
25972;SDS011;13765;51.166;4.466;2022-10-23T12:42:58;8.43;;;2.00;;
25972;SDS011;13765;51.166;4.466;2022-10-23T12:45:26;4.68;;;1.77;;
25972;SDS011;13765;51.166;4.466;2022-10-23T12:47:56;11.75;;;2.85;;
25972;SDS011;13765;51.166;4.466;2022-10-23T12:50:23;9.57;;;1.77;;
25972;SDS011;13765;51.166;4.466;2022-10-23T12:52:58;6.22;;;2.22;;
25972;SDS011;13765;51.166;4.466;2022-10-23T12:55:27;6.82;;;1.83;;
25972;SDS011;13765;51.166;4.466;2022-10-23T12:58:24;2.00;;;1.27;;
25972;SDS011;13765;51.166;4.466;2022-10-23T13:00:55;6.68;;;2.63;;
25972;SDS011;13765;51.166;4.466;2022-10-23T13:03:25;5.28;;;2.10;;
25972;SDS011;13765;51.166;4.466;2022-10-23T13:05:58;5.55;;;1.73;;
25972;SDS011;13765;51.166;4.466;2022-10-23T13:08:32;10.05;;;2.13;;
25972;SDS011;13765;51.166;4.466;2022-10-23T13:11:08;4.80;;;1.38;;
25972;SDS011;13765;51.166;4.466;2022-10-23T13:13:39;3.15;;;1.80;;
25972;SDS011;13765;51.166;4.466;2022-10-23T13:16:13;4.72;;;2.03;;
25972;SDS011;13765;51.166;4.466;2022-10-23T13:18:40;7.15;;;1.60;;
25972;SDS011;13765;51.166;4.466;2022-10-23T13:23:47;6.85;;;2.00;;
25972;SDS011;13765;51.166;4.466;2022-10-23T13:31:54;5.93;;;1.45;;
25972;SDS011;13765;51.166;4.466;2022-10-23T13:34:38;3.65;;;1.48;;
25972;SDS011;13765;51.166;4.466;2022-10-23T13:37:22;6.93;;;1.98;;
25972;SDS011;13765;51.166;4.466;2022-10-23T13:40:00;2.53;;;1.58;;
25972;SDS011;13765;51.166;4.466;2022-10-23T13:42:26;2.47;;;1.40;;
25972;SDS011;13765;51.166;4.466;2022-10-23T13:44:54;9.93;;;1.95;;
25972;SDS011;13765;51.166;4.466;2022-10-23T13:47:23;5.38;;;1.67;;
25972;SDS011;13765;51.166;4.466;2022-10-23T13:49:50;7.50;;;1.77;;
25972;SDS011;13765;51.166;4.466;2022-10-23T13:52:18;5.82;;;1.67;;
25972;SDS011;13765;51.166;4.466;2022-10-23T13:54:46;5.00;;;1.42;;
25972;SDS011;13765;51.166;4.466;2022-10-23T13:57:13;4.85;;;1.73;;
25972;SDS011;13765;51.166;4.466;2022-10-23T13:59:42;4.80;;;1.63;;
25972;SDS011;13765;51.166;4.466;2022-10-23T14:02:26;6.03;;;1.80;;
25972;SDS011;13765;51.166;4.466;2022-10-23T14:04:54;6.57;;;2.17;;
25972;SDS011;13765;51.166;4.466;2022-10-23T14:07:19;6.10;;;1.83;;
25972;SDS011;13765;51.166;4.466;2022-10-23T14:09:47;4.70;;;1.85;;
25972;SDS011;13765;51.166;4.466;2022-10-23T14:12:13;8.30;;;2.45;;
25972;SDS011;13765;51.166;4.466;2022-10-23T14:14:39;6.82;;;2.00;;
25972;SDS011;13765;51.166;4.466;2022-10-23T14:17:05;5.10;;;1.85;;
25972;SDS011;13765;51.166;4.466;2022-10-23T14:19:34;8.10;;;2.00;;
25972;SDS011;13765;51.166;4.466;2022-10-23T14:22:02;4.63;;;1.85;;
25972;SDS011;13765;51.166;4.466;2022-10-23T14:24:27;4.90;;;1.65;;
25972;SDS011;13765;51.166;4.466;2022-10-23T14:26:53;11.93;;;1.90;;
25972;SDS011;13765;51.166;4.466;2022-10-23T14:29:21;7.28;;;1.75;;
25972;SDS011;13765;51.166;4.466;2022-10-23T14:31:47;14.40;;;2.38;;
25972;SDS011;13765;51.166;4.466;2022-10-23T14:34:12;6.97;;;1.80;;
25972;SDS011;13765;51.166;4.466;2022-10-23T14:36:38;4.38;;;1.60;;
25972;SDS011;13765;51.166;4.466;2022-10-23T14:39:03;5.40;;;1.48;;
25972;SDS011;13765;51.166;4.466;2022-10-23T14:41:29;10.70;;;2.47;;
25972;SDS011;13765;51.166;4.466;2022-10-23T14:43:55;9.27;;;1.83;;
25972;SDS011;13765;51.166;4.466;2022-10-23T14:46:28;7.22;;;2.03;;
25972;SDS011;13765;51.166;4.466;2022-10-23T14:48:54;9.65;;;1.95;;
25972;SDS011;13765;51.166;4.466;2022-10-23T14:51:26;6.40;;;2.03;;
25972;SDS011;13765;51.166;4.466;2022-10-23T14:54:02;5.63;;;2.35;;
25972;SDS011;13765;51.166;4.466;2022-10-23T14:56:30;5.47;;;1.73;;
25972;SDS011;13765;51.166;4.466;2022-10-23T14:58:58;5.70;;;2.38;;
25972;SDS011;13765;51.166;4.466;2022-10-23T15:01:28;5.40;;;2.63;;
25972;SDS011;13765;51.166;4.466;2022-10-23T15:04:07;7.13;;;2.50;;
25972;SDS011;13765;51.166;4.466;2022-10-23T15:06:33;8.05;;;2.17;;
25972;SDS011;13765;51.166;4.466;2022-10-23T15:09:03;5.63;;;2.10;;
25972;SDS011;13765;51.166;4.466;2022-10-23T15:11:32;11.23;;;2.60;;
25972;SDS011;13765;51.166;4.466;2022-10-23T15:14:00;7.22;;;2.40;;
25972;SDS011;13765;51.166;4.466;2022-10-23T15:16:26;6.97;;;2.30;;
25972;SDS011;13765;51.166;4.466;2022-10-23T15:18:55;7.25;;;3.15;;
25972;SDS011;13765;51.166;4.466;2022-10-23T15:21:21;6.28;;;1.80;;
25972;SDS011;13765;51.166;4.466;2022-10-23T15:23:47;3.05;;;1.50;;
25972;SDS011;13765;51.166;4.466;2022-10-23T15:26:17;5.80;;;2.05;;
25972;SDS011;13765;51.166;4.466;2022-10-23T15:28:46;5.18;;;2.20;;
25972;SDS011;13765;51.166;4.466;2022-10-23T15:34:08;7.07;;;2.55;;
25972;SDS011;13765;51.166;4.466;2022-10-23T15:36:37;6.00;;;2.30;;
25972;SDS011;13765;51.166;4.466;2022-10-23T15:39:07;9.63;;;3.10;;
25972;SDS011;13765;51.166;4.466;2022-10-23T15:41:37;4.85;;;2.30;;
25972;SDS011;13765;51.166;4.466;2022-10-23T15:44:08;4.20;;;1.95;;
25972;SDS011;13765;51.166;4.466;2022-10-23T15:46:37;6.97;;;2.35;;
25972;SDS011;13765;51.166;4.466;2022-10-23T15:49:03;5.38;;;2.25;;
25972;SDS011;13765;51.166;4.466;2022-10-23T15:51:29;11.45;;;2.95;;
25972;SDS011;13765;51.166;4.466;2022-10-23T15:54:01;8.10;;;2.40;;
25972;SDS011;13765;51.166;4.466;2022-10-23T15:56:28;12.40;;;2.80;;
25972;SDS011;13765;51.166;4.466;2022-10-23T15:58:53;5.13;;;2.20;;
25972;SDS011;13765;51.166;4.466;2022-10-23T16:01:19;8.38;;;2.38;;
25972;SDS011;13765;51.166;4.466;2022-10-23T16:03:45;12.38;;;2.83;;
25972;SDS011;13765;51.166;4.466;2022-10-23T16:06:12;11.90;;;3.15;;
25972;SDS011;13765;51.166;4.466;2022-10-23T16:08:39;4.63;;;2.10;;
25972;SDS011;13765;51.166;4.466;2022-10-23T16:13:55;6.57;;;2.38;;
25972;SDS011;13765;51.166;4.466;2022-10-23T16:16:21;14.90;;;4.47;;
25972;SDS011;13765;51.166;4.466;2022-10-23T16:18:48;8.50;;;3.55;;
25972;SDS011;13765;51.166;4.466;2022-10-23T16:21:21;22.38;;;4.55;;
25972;SDS011;13765;51.166;4.466;2022-10-23T16:23:55;9.30;;;2.92;;
25972;SDS011;13765;51.166;4.466;2022-10-23T16:26:24;8.27;;;2.85;;
25972;SDS011;13765;51.166;4.466;2022-10-23T16:28:54;8.25;;;2.50;;
25972;SDS011;13765;51.166;4.466;2022-10-23T16:31:20;12.63;;;2.67;;
25972;SDS011;13765;51.166;4.466;2022-10-23T16:33:50;7.13;;;2.50;;
25972;SDS011;13765;51.166;4.466;2022-10-23T16:36:20;10.05;;;3.13;;
25972;SDS011;13765;51.166;4.466;2022-10-23T16:38:48;11.63;;;3.72;;
25972;SDS011;13765;51.166;4.466;2022-10-23T16:41:14;8.32;;;2.85;;
25972;SDS011;13765;51.166;4.466;2022-10-23T16:43:43;6.05;;;2.55;;
25972;SDS011;13765;51.166;4.466;2022-10-23T16:46:14;10.38;;;2.67;;
25972;SDS011;13765;51.166;4.466;2022-10-23T16:48:45;7.95;;;1.85;;
25972;SDS011;13765;51.166;4.466;2022-10-23T16:51:15;8.82;;;2.78;;
25972;SDS011;13765;51.166;4.466;2022-10-23T16:53:45;10.45;;;2.45;;
25972;SDS011;13765;51.166;4.466;2022-10-23T16:56:13;6.22;;;2.58;;
25972;SDS011;13765;51.166;4.466;2022-10-23T16:58:41;6.93;;;2.33;;
25972;SDS011;13765;51.166;4.466;2022-10-23T17:01:14;7.93;;;2.35;;
25972;SDS011;13765;51.166;4.466;2022-10-23T17:03:44;9.27;;;2.42;;